Time;durP1;ratioP1;P1;durP2;ratioP2;P2;SDS_P1;SDS_P2;PMS_P1;PMS_P2;Temp;Humidity;BMP_temperature;BMP_pressure;BME280_temperature;BME280_humidity;BME280_pressure;Samples;Min_cycle;Max_cycle;Signal;HPM_P1;HPM_P2
2023/07/03 00:02:23;;;;;;;;;;;;;;;;;;5026374;28;92922;-69
2023/07/03 00:04:48;;;;;;;;;;;;;;;;;;5022873;27;92293;-69
2023/07/03 00:07:14;;;;;;;;;;;;;;;;;;5024945;28;93581;-68
2023/07/03 00:09:40;;;;;;;;;;;;;;;;;;5028778;27;95670;-69
2023/07/03 00:12:05;;;;;;;;;;;;;;;;;;5023120;27;93345;-69
2023/07/03 00:14:30;;;;;;;;;;;;;;;;;;5022748;28;93849;-68
2023/07/03 00:16:56;;;;;;;;;;;;;;;;;;5022626;27;95528;-69
2023/07/03 00:19:26;;;;;;;;;;;;;;;;;;5023097;28;92343;-69
2023/07/03 00:21:51;;;;;;;;;;;;;;;;;;5021397;28;94245;-69
2023/07/03 00:24:16;;;;;;;;;;;;;;;;;;5026400;28;92958;-68
2023/07/03 00:26:41;;;;;;;;;;;;;;;;;;5023884;28;93332;-68
2023/07/03 00:29:07;;;;;;;;;;;;;;;;;;5022880;28;92932;-69
2023/07/03 00:31:32;;;;;;;;;;;;;;;;;;5023962;28;92260;-69
2023/07/03 00:33:58;;;;;;;;;;;;;;;;;;5023040;28;93072;-68
2023/07/03 00:36:23;;;;;;;;;;;;;;;;;;5019251;28;92956;-69
2023/07/03 00:38:48;;;;;;;;;;;;;;;;;;5015680;28;95698;-68
2023/07/03 00:41:14;;;;;;;;;;;;;;;;;;5021364;28;93094;-68
2023/07/03 00:43:43;;;;;;;;;;;;;;;;;;5021805;28;93020;-69
2023/07/03 00:46:11;;;;;;;;;;;;;;;;;;5022893;28;92996;-68
2023/07/03 00:48:38;;;;;;;;;;;;;;;;;;5022380;27;97130;-69
2023/07/03 00:51:04;;;;;;;;;;;;;;;;;;5020898;27;94166;-69
2023/07/03 00:53:29;;;;;;;;;;;;;;;;;;5022259;27;94178;-68
2023/07/03 00:55:55;;;;;;;;;;;;;;;;;;5025202;27;92125;-68
2023/07/03 00:58:20;;;;;;;;;;;;;;;;;;5020384;27;92900;-68
2023/07/03 01:01:08;;;;;;;;;;;;;;;;;;5022867;27;93873;-67
2023/07/03 01:03:45;;;;;;;;;;;;;;;;;;5023287;28;93835;-68
2023/07/03 01:06:16;;;;;;;;;;;;;;;;;;5022600;27;92843;-68
2023/07/03 01:08:42;;;;;;;;;;;;;;;;;;5031291;27;94367;-69
2023/07/03 01:11:08;;;;;;;;;;;;;;;;;;5023170;28;92374;-68
2023/07/03 01:13:35;;;;;;;;;;;;;;;;;;5021105;28;95044;-69
2023/07/03 01:16:03;;;;;;;;;;;;;;;;;;5017317;27;93001;-69
2023/07/03 01:18:29;;;;;;;;;;;;;;;;;;5024207;28;93339;-68
2023/07/03 01:21:00;;;;;;;;;;;;;;;;;;5024961;28;92504;-68
2023/07/03 01:23:36;;;;;;;;;;;;;;;;;;5023315;28;96104;-68
2023/07/03 01:26:03;;;;;;;;;;;;;;;;;;5021949;28;94341;-68
2023/07/03 01:28:29;;;;;;;;;;;;;;;;;;5022985;28;94271;-68
2023/07/03 01:30:55;;;;;;;;;;;;;;;;;;5025109;28;93502;-68
2023/07/03 01:33:25;;;;;;;;;;;;;;;;;;5019834;28;92676;-69
2023/07/03 01:35:51;;;;;;;;;;;;;;;;;;5023759;28;92900;-69
2023/07/03 01:38:20;;;;;;;;;;;;;;;;;;5016520;28;93049;-68
2023/07/03 01:40:45;;;;;;;;;;;;;;;;;;5024361;28;92706;-68
2023/07/03 01:43:11;;;;;;;;;;;;;;;;;;5023261;27;93116;-69
2023/07/03 01:45:44;;;;;;;;;;;;;;;;;;5017998;28;93189;-69
2023/07/03 01:48:09;;;;;;;;;;;;;;;;;;5021127;28;93117;-67
2023/07/03 01:50:35;;;;;;;;;;;;;;;;;;5027772;27;93073;-69
2023/07/03 01:53:03;;;;;;;;;;;;;;;;;;5022329;27;93844;-68
2023/07/03 01:55:46;;;;;;;;;;;;;;;;;;5019540;27;93164;-69
2023/07/03 01:58:21;;;;;;;;;;;;;;;;;;5023513;27;92883;-69
2023/07/03 02:00:51;;;;;;;;;;;;;;;;;;5022603;28;95853;-69
2023/07/03 02:03:17;;;;;;;;;;;;;;;;;;5020068;27;92966;-69
2023/07/03 02:05:43;;;;;;;;;;;;;;;;;;5020720;28;92435;-69
2023/07/03 02:08:09;;;;;;;;;;;;;;;;;;5023838;27;95611;-69
2023/07/03 02:10:35;;;;;;;;;;;;;;;;;;5023947;28;92458;-70
2023/07/03 02:13:01;;;;;;;;;;;;;;;;;;5026451;28;92854;-68
2023/07/03 02:15:26;;;;;;;;;;;;;;;;;;5039295;27;96037;-68
2023/07/03 02:17:54;;;;;;;;;;;;;;;;;;5022461;27;94226;-68
2023/07/03 02:20:19;;;;;;;;;;;;;;;;;;5022773;27;94348;-69
2023/07/03 02:22:44;;;;;;;;;;;;;;;;;;5023419;28;92940;-69
2023/07/03 02:25:10;;;;;;;;;;;;;;;;;;5021997;28;92225;-68
2023/07/03 02:27:36;;;;;;;;;;;;;;;;;;5022527;27;92666;-69
2023/07/03 02:30:01;;;;;;;;;;;;;;;;;;5023711;28;92872;-68
2023/07/03 02:32:33;;;;;;;;;;;;;;;;;;5022619;27;92874;-69
2023/07/03 02:34:58;;;;;;;;;;;;;;;;;;5026401;28;94543;-69
2023/07/03 02:37:24;;;;;;;;;;;;;;;;;;5023358;28;92668;-69
2023/07/03 02:39:49;;;;;;;;;;;;;;;;;;5022295;28;92772;-70
2023/07/03 02:42:14;;;;;;;;;;;;;;;;;;5026099;27;96496;-69
2023/07/03 02:44:39;;;;;;;;;;;;;;;;;;5023871;28;92904;-69
2023/07/03 02:47:05;;;;;;;;;;;;;;;;;;5021507;28;92632;-70
2023/07/03 02:49:30;;;;;;;;;;;;;;;;;;5015309;28;95142;-71
2023/07/03 02:51:55;;;;;;;;;;;;;;;;;;5020522;28;94229;-70
2023/07/03 02:54:20;;;;;;;;;;;;;;;;;;5022056;28;96989;-70
2023/07/03 02:56:46;;;;;;;;;;;;;;;;;;5016353;28;95304;-69
2023/07/03 02:59:14;;;;;;;;;;;;;;;;;;5021563;28;93475;-69
2023/07/03 03:01:39;;;;;;;;;;;;;;;;;;5022020;28;92921;-68
2023/07/03 03:04:04;;;;;;;;;;;;;;;;;;5020719;28;92837;-68
2023/07/03 03:06:30;;;;;;;;;;;;;;;;;;5024977;27;95536;-69
2023/07/03 03:08:55;;;;;;;;;;;;;;;;;;5021191;28;93002;-69
2023/07/03 03:11:20;;;;;;;;;;;;;;;;;;5017805;28;92561;-69
2023/07/03 03:13:45;;;;;;;;;;;;;;;;;;5023684;28;93600;-69
2023/07/03 03:16:10;;;;;;;;;;;;;;;;;;5023814;28;92220;-70
2023/07/03 03:18:36;;;;;;;;;;;;;;;;;;5013429;28;92576;-69
2023/07/03 03:21:01;;;;;;;;;;;;;;;;;;5023121;28;92956;-69
2023/07/03 03:23:26;;;;;;;;;;;;;;;;;;5022973;28;91584;-69
2023/07/03 03:25:51;;;;;;;;;;;;;;;;;;5022051;28;92410;-68
2023/07/03 03:28:17;;;;;;;;;;;;;;;;;;5022083;28;92794;-69
2023/07/03 03:30:43;;;;;;;;;;;;;;;;;;5021130;27;95015;-69
2023/07/03 03:33:08;;;;;;;;;;;;;;;;;;5022038;28;96174;-69
2023/07/03 03:35:33;;;;;;;;;;;;;;;;;;5020824;28;92219;-69
2023/07/03 03:37:58;;;;;;;;;;;;;;;;;;5022388;27;92770;-69
2023/07/03 03:40:24;;;;;;;;;;;;;;;;;;5020504;28;92750;-69
2023/07/03 03:42:49;;;;;;;;;;;;;;;;;;5022974;28;92255;-69
2023/07/03 03:45:14;;;;;;;;;;;;;;;;;;5021119;28;94711;-69
2023/07/03 03:47:39;;;;;;;;;;;;;;;;;;5018738;28;92019;-69
2023/07/03 03:50:05;;;;;;;;;;;;;;;;;;5021748;28;92680;-69
2023/07/03 03:52:30;;;;;;;;;;;;;;;;;;5023734;27;93226;-68
2023/07/03 03:54:55;;;;;;;;;;;;;;;;;;5022455;28;93853;-69
2023/07/03 03:57:21;;;;;;;;;;;;;;;;;;5023479;28;92524;-68
2023/07/03 03:59:49;;;;;;;;;;;;;;;;;;5020502;28;93712;-69
2023/07/03 04:02:15;;;;;;;;;;;;;;;;;;5020819;28;93921;-69
2023/07/03 04:04:40;;;;;;;;;;;;;;;;;;5014048;28;92921;-69
2023/07/03 04:07:05;;;;;;;;;;;;;;;;;;5019047;28;93054;-68
2023/07/03 04:09:31;;;;;;;;;;;;;;;;;;5020670;28;93033;-68
2023/07/03 04:11:56;;;;;;;;;;;;;;;;;;5021251;27;95501;-68
2023/07/03 04:14:21;;;;;;;;;;;;;;;;;;5018827;28;93445;-69
2023/07/03 04:16:47;;;;;;;;;;;;;;;;;;5015741;28;93002;-69
2023/07/03 04:19:14;;;;;;;;;;;;;;;;;;5023492;27;95736;-69
2023/07/03 04:21:40;;;;;;;;;;;;;;;;;;5030517;28;95787;-68
2023/07/03 04:24:06;;;;;;;;;;;;;;;;;;5026958;28;92815;-68
2023/07/03 04:26:32;;;;;;;;;;;;;;;;;;5029393;27;92842;-68
2023/07/03 04:28:58;;;;;;;;;;;;;;;;;;5028033;28;92711;-68
2023/07/03 04:31:23;;;;;;;;;;;;;;;;;;5027365;28;92630;-68
2023/07/03 04:33:48;;;;;;;;;;;;;;;;;;5025629;27;94027;-69
2023/07/03 04:36:17;;;;;;;;;;;;;;;;;;5029292;27;91996;-69
2023/07/03 04:38:42;;;;;;;;;;;;;;;;;;5020926;28;92855;-68
2023/07/03 04:41:08;;;;;;;;;;;;;;;;;;5023370;28;93031;-69
2023/07/03 04:43:33;;;;;;;;;;;;;;;;;;5027802;27;93171;-69
2023/07/03 04:46:03;;;;;;;;;;;;;;;;;;5029543;27;92994;-68
2023/07/03 04:48:29;;;;;;;;;;;;;;;;;;5026559;28;92754;-69
2023/07/03 04:50:54;;;;;;;;;;;;;;;;;;5027478;28;94697;-68
2023/07/03 04:53:20;;;;;;;;;;;;;;;;;;5026449;28;93212;-68
2023/07/03 04:55:46;;;;;;;;;;;;;;;;;;5026598;28;92866;-68
2023/07/03 04:58:12;;;;;;;;;;;;;;;;;;5023877;27;92799;-68
2023/07/03 05:00:39;;;;;;;;;;;;;;;;;;5027818;28;92532;-68
2023/07/03 05:03:05;;;;;;;;;;;;;;;;;;5023541;27;93551;-68
2023/07/03 05:05:30;;;;;;;;;;;;;;;;;;5029983;28;92969;-68
2023/07/03 05:07:55;;;;;;;;;;;;;;;;;;5026121;28;95178;-68
2023/07/03 05:10:22;;;;;;;;;;;;;;;;;;5024593;27;93468;-68
2023/07/03 05:12:47;;;;;;;;;;;;;;;;;;5025371;27;92802;-68
2023/07/03 05:15:14;;;;;;;;;;;;;;;;;;5025413;28;93151;-68
2023/07/03 05:17:39;;;;;;;;;;;;;;;;;;5026202;27;92808;-69
2023/07/03 05:20:16;;;;;;;;;;;;;;;;;;5024427;28;95216;-69
2023/07/03 05:22:42;;;;;;;;;;;;;;;;;;5025886;28;93491;-69
2023/07/03 05:25:09;;;;;;;;;;;;;;;;;;5028081;28;93048;-67
2023/07/03 05:27:34;;;;;;;;;;;;;;;;;;5026584;27;94110;-69
2023/07/03 05:29:59;;;;;;;;;;;;;;;;;;5020492;27;93371;-69
2023/07/03 05:32:24;;;;;;;;;;;;;;;;;;5022605;28;93938;-68
2023/07/03 05:34:50;;;;;;;;;;;;;;;;;;5020920;27;92293;-69
2023/07/03 05:37:15;;;;;;;;;;;;;;;;;;5022918;28;93541;-69
2023/07/03 05:39:40;;;;;;;;;;;;;;;;;;5019912;28;94852;-69
2023/07/03 05:42:06;;;;;;;;;;;;;;;;;;5018543;27;92668;-69
2023/07/03 05:44:31;;;;;;;;;;;;;;;;;;5022462;28;93827;-69
2023/07/03 05:46:59;;;;;;;;;;;;;;;;;;5019727;28;94087;-67
2023/07/03 05:49:24;;;;;;;;;;;;;;;;;;5023336;27;92481;-69
2023/07/03 05:51:49;;;;;;;;;;;;;;;;;;5020976;28;93553;-69
2023/07/03 05:54:16;;;;;;;;;;;;;;;;;;5023252;28;92258;-69
2023/07/03 05:56:43;;;;;;;;;;;;;;;;;;5017607;28;94431;-69
2023/07/03 05:59:08;;;;;;;;;;;;;;;;;;5022620;28;93611;-69
2023/07/03 06:01:33;;;;;;;;;;;;;;;;;;5022299;27;92834;-71
2023/07/03 06:03:59;;;;;;;;;;;;;;;;;;5017189;28;93055;-72
2023/07/03 06:06:24;;;;;;;;;;;;;;;;;;5023518;27;92397;-73
2023/07/03 06:08:49;;;;;;;;;;;;;;;;;;5017280;28;93110;-76
2023/07/03 06:11:15;;;;;;;;;;;;;;;;;;5016480;28;94861;-74
2023/07/03 06:13:40;;;;;;;;;;;;;;;;;;5017232;28;91704;-69
2023/07/03 06:16:05;;;;;;;;;;;;;;;;;;5016388;27;94359;-69
2023/07/03 06:18:30;;;;;;;;;;;;;;;;;;5017172;28;92908;-70
2023/07/03 06:20:55;;;;;;;;;;;;;;;;;;5013879;28;93986;-68
2023/07/03 06:23:21;;;;;;;;;;;;;;;;;;5019071;28;93382;-70
2023/07/03 06:25:46;;;;;;;;;;;;;;;;;;5016151;28;92749;-70
2023/07/03 06:28:12;;;;;;;;;;;;;;;;;;5018391;27;93121;-69
2023/07/03 06:30:38;;;;;;;;;;;;;;;;;;5022750;28;92922;-69
2023/07/03 06:33:03;;;;;;;;;;;;;;;;;;5017719;27;92601;-69
2023/07/03 06:35:28;;;;;;;;;;;;;;;;;;5022692;28;92704;-69
2023/07/03 06:37:55;;;;;;;;;;;;;;;;;;5016646;28;92406;-69
2023/07/03 06:40:21;;;;;;;;;;;;;;;;;;5019147;28;92992;-69
2023/07/03 06:42:46;;;;;;;;;;;;;;;;;;5021162;28;93452;-69
2023/07/03 06:45:12;;;;;;;;;;;;;;;;;;5017927;27;96696;-70
2023/07/03 06:47:37;;;;;;;;;;;;;;;;;;5021348;28;92353;-71
2023/07/03 06:50:03;;;;;;;;;;;;;;;;;;5014632;28;93155;-70
2023/07/03 06:52:28;;;;;;;;;;;;;;;;;;5023699;28;92989;-69
2023/07/03 06:54:54;;;;;;;;;;;;;;;;;;5019160;28;93035;-71
2023/07/03 06:57:19;;;;;;;;;;;;;;;;;;5021510;27;92623;-72
2023/07/03 06:59:44;;;;;;;;;;;;;;;;;;5022626;28;92536;-69
2023/07/03 07:02:09;;;;;;;;;;;;;;;;;;5023263;28;92647;-71
2023/07/03 07:04:35;;;;;;;;;;;;;;;;;;5023320;28;93684;-73
2023/07/03 07:07:00;;;;;;;;;;;;;;;;;;5019204;28;92712;-77
2023/07/03 07:09:25;;;;;;;;;;;;;;;;;;5017128;28;93273;-76
2023/07/03 07:11:50;;;;;;;;;;;;;;;;;;5022455;28;95771;-76
2023/07/03 07:14:17;;;;;;;;;;;;;;;;;;5023341;28;94021;-74
2023/07/03 07:16:43;;;;;;;;;;;;;;;;;;5018023;28;93860;-75
2023/07/03 07:19:09;;;;;;;;;;;;;;;;;;5021611;28;93004;-73
2023/07/03 07:21:38;;;;;;;;;;;;;;;;;;5020651;28;92919;-78
2023/07/03 07:24:11;;;;;;;;;;;;;;;;;;5019189;28;93169;-75
2023/07/03 07:26:37;;;;;;;;;;;;;;;;;;5018616;28;92795;-72
2023/07/03 07:29:03;;;;;;;;;;;;;;;;;;5011777;27;94336;-70
2023/07/03 07:31:28;;;;;;;;;;;;;;;;;;5019664;27;93426;-69
2023/07/03 07:33:54;;;;;;;;;;;;;;;;;;5015461;28;94391;-69
2023/07/03 07:36:20;;;;;;;;;;;;;;;;;;5023536;28;95476;-70
2023/07/03 07:38:48;;;;;;;;;;;;;;;;;;5018331;28;94068;-70
2023/07/03 07:41:13;;;;;;;;;;;;;;;;;;5011307;28;93012;-70
2023/07/03 07:43:38;;;;;;;;;;;;;;;;;;5020207;28;94835;-70
2023/07/03 07:46:03;;;;;;;;;;;;;;;;;;5018300;28;92680;-70
2023/07/03 07:48:29;;;;;;;;;;;;;;;;;;5018989;28;92742;-70
2023/07/03 07:50:54;;;;;;;;;;;;;;;;;;5020421;27;92532;-70
2023/07/03 07:53:19;;;;;;;;;;;;;;;;;;5020140;27;92818;-70
2023/07/03 07:55:45;;;;;;;;;;;;;;;;;;5025230;28;92618;-70
2023/07/03 07:58:10;;;;;;;;;;;;;;;;;;5018744;28;93163;-70
2023/07/03 08:00:36;;;;;;;;;;;;;;;;;;5017100;28;93494;-70
2023/07/03 08:03:01;;;;;;;;;;;;;;;;;;5018763;28;92767;-70
2023/07/03 08:05:26;;;;;;;;;;;;;;;;;;5017286;28;92700;-69
2023/07/03 08:07:52;;;;;;;;;;;;;;;;;;5015105;28;93337;-70
2023/07/03 08:10:18;;;;;;;;;;;;;;;;;;5015903;28;92839;-70
2023/07/03 08:12:43;;;;;;;;;;;;;;;;;;5014771;28;92763;-70
2023/07/03 08:15:09;;;;;;;;;;;;;;;;;;5020809;28;92610;-69
2023/07/03 08:17:34;;;;;;;;;;;;;;;;;;5018506;27;92657;-69
2023/07/03 08:19:59;;;;;;;;;;;;;;;;;;5016811;27;93017;-69
2023/07/03 08:22:25;;;;;;;;;;;;;;;;;;5015704;28;94488;-70
2023/07/03 08:24:50;;;;;;;;;;;;;;;;;;5017657;28;93740;-72
2023/07/03 08:27:15;;;;;;;;;;;;;;;;;;5019728;28;92949;-70
2023/07/03 08:29:40;;;;;;;;;;;;;;;;;;5017566;28;92852;-70
2023/07/03 08:32:08;;;;;;;;;;;;;;;;;;5018377;28;94030;-70
2023/07/03 08:34:33;;;;;;;;;;;;;;;;;;5018955;28;95204;-70
2023/07/03 08:36:58;;;;;;;;;;;;;;;;;;5019312;28;92928;-69
2023/07/03 08:39:23;;;;;;;;;;;;;;;;;;5017513;28;91898;-69
2023/07/03 08:42:09;;;;;;;;;;;;;;;;;;5016889;28;93139;-70
2023/07/03 08:44:35;;;;;;;;;;;;;;;;;;4980451;28;93664;-69
2023/07/03 08:47:03;;;;;;;;;;;;;;;;;;5017546;28;94447;-69
2023/07/03 08:49:29;;;;;;;;;;;;;;;;;;5019723;27;92800;-69
2023/07/03 08:51:58;;;;;;;;;;;;;;;;;;5020573;27;92225;-70
2023/07/03 08:54:30;;;;;;;;;;;;;;;;;;5017521;28;92745;-70
2023/07/03 08:56:56;;;;;;;;;;;;;;;;;;5017514;28;94291;-69
2023/07/03 08:59:21;;;;;;;;;;;;;;;;;;5017891;27;93665;-69
2023/07/03 09:01:50;;;;;;;;;;;;;;;;;;5021074;28;92940;-70
2023/07/03 09:04:48;;;;;;;;;;;;;;;;;;5025102;28;91529;-69
2023/07/03 09:07:15;;;;;;;;;;;;;;;;;;4976535;27;92578;-70
2023/07/03 09:09:47;;;;;;;;;;;;;;;;;;5020705;28;94325;-69
2023/07/03 09:12:35;;;;;;;;;;;;;;;;;;5022974;28;94711;-70
2023/07/03 09:15:07;;;;;;;;;;;;;;;;;;5023330;28;94364;-70
2023/07/03 09:17:33;;;;;;;;;;;;;;;;;;5019791;28;92955;-71
2023/07/03 09:19:59;;;;;;;;;;;;;;;;;;5015797;27;92880;-72
2023/07/03 09:22:28;;;;;;;;;;;;;;;;;;5020143;28;93158;-73
2023/07/03 09:24:58;;;;;;;;;;;;;;;;;;5021799;28;94084;-69
2023/07/03 09:27:27;;;;;;;;;;;;;;;;;;5019822;27;94018;-74
2023/07/03 09:29:54;;;;;;;;;;;;;;;;;;5019213;27;95121;-75
2023/07/03 09:32:30;;;;;;;;;;;;;;;;;;5017785;28;92855;-72
2023/07/03 09:35:01;;;;;;;;;;;;;;;;;;5023222;27;92770;-72
2023/07/03 09:37:27;;;;;;;;;;;;;;;;;;5021252;28;95140;-74
2023/07/03 09:39:53;;;;;;;;;;;;;;;;;;5019091;28;92830;-71
2023/07/03 09:42:20;;;;;;;;;;;;;;;;;;5023059;27;92723;-73
2023/07/03 09:44:45;;;;;;;;;;;;;;;;;;5018083;28;93155;-70
2023/07/03 09:47:19;;;;;;;;;;;;;;;;;;5024975;27;93807;-69
2023/07/03 09:49:44;;;;;;;;;;;;;;;;;;5017552;28;92304;-68
2023/07/03 09:52:10;;;;;;;;;;;;;;;;;;5022091;28;92441;-67
2023/07/03 09:54:40;;;;;;;;;;;;;;;;;;5036838;27;95130;-69
2023/07/03 09:57:06;;;;;;;;;;;;;;;;;;5020873;27;93019;-68
2023/07/03 09:59:31;;;;;;;;;;;;;;;;;;5011985;28;93720;-73
2023/07/03 10:01:58;;;;;;;;;;;;;;;;;;5019191;28;94490;-74
2023/07/03 10:04:24;;;;;;;;;;;;;;;;;;5015819;27;94244;-72
2023/07/03 10:07:06;;;;;;;;;;;;;;;;;;5019417;27;94064;-70
2023/07/03 10:09:33;;;;;;;;;;;;;;;;;;5031295;27;95388;-71
2023/07/03 10:12:11;;;;;;;;;;;;;;;;;;5026649;27;93379;-72
2023/07/03 10:14:39;;;;;;;;;;;;;;;;;;5019182;28;95588;-73
2023/07/03 10:17:12;;;;;;;;;;;;;;;;;;5018563;28;93140;-74
2023/07/03 10:19:37;;;;;;;;;;;;;;;;;;5015848;28;93236;-70
2023/07/03 10:22:04;;;;;;;;;;;;;;;;;;5017384;28;92749;-73
2023/07/03 10:24:32;;;;;;;;;;;;;;;;;;5022066;27;94400;-74
2023/07/03 10:26:58;;;;;;;;;;;;;;;;;;5020878;28;93555;-73
2023/07/03 10:29:30;;;;;;;;;;;;;;;;;;5021758;27;93352;-73
2023/07/03 10:32:03;;;;;;;;;;;;;;;;;;5021747;28;92222;-71
2023/07/03 10:34:41;;;;;;;;;;;;;;;;;;5019517;28;94010;-73
2023/07/03 10:37:07;;;;;;;;;;;;;;;;;;5016894;28;94973;-71
2023/07/03 10:39:42;;;;;;;;;;;;;;;;;;5021893;27;92709;-70
2023/07/03 10:42:10;;;;;;;;;;;;;;;;;;5018330;28;93284;-70
2023/07/03 10:44:38;;;;;;;;;;;;;;;;;;5020997;28;93160;-69
2023/07/03 10:47:15;;;;;;;;;;;;;;;;;;5018530;28;92787;-69
2023/07/03 10:49:41;;;;;;;;;;;;;;;;;;5018966;28;92885;-70
2023/07/03 10:52:06;;;;;;;;;;;;;;;;;;5024218;28;94473;-72
2023/07/03 10:54:52;;;;;;;;;;;;;;;;;;5016166;27;93855;-73
2023/07/03 10:57:20;;;;;;;;;;;;;;;;;;4979911;28;92895;-73
2023/07/03 10:59:49;;;;;;;;;;;;;;;;;;5013127;28;94160;-72
2023/07/03 11:02:26;;;;;;;;;;;;;;;;;;5016888;28;92960;-73
2023/07/03 11:05:01;;;;;;;;;;;;;;;;;;5020563;28;93227;-73
2023/07/03 11:07:34;;;;;;;;;;;;;;;;;;5019926;28;93966;-73
2023/07/03 11:10:00;;;;;;;;;;;;;;;;;;5021042;28;92687;-73
2023/07/03 11:12:25;;;;;;;;;;;;;;;;;;5021116;28;92853;-72
2023/07/03 11:14:50;;;;;;;;;;;;;;;;;;5022879;28;92748;-73
2023/07/03 11:17:20;;;;;;;;;;;;;;;;;;5019570;28;95087;-71
2023/07/03 11:19:45;;;;;;;;;;;;;;;;;;5022332;28;93008;-71
2023/07/03 11:22:19;;;;;;;;;;;;;;;;;;5019384;28;94933;-75
2023/07/03 11:24:53;;;;;;;;;;;;;;;;;;5019429;28;93352;-74
2023/07/03 11:27:18;;;;;;;;;;;;;;;;;;5020098;27;93526;-74
2023/07/03 11:29:44;;;;;;;;;;;;;;;;;;5018632;28;95196;-73
2023/07/03 11:32:09;;;;;;;;;;;;;;;;;;5018595;28;92767;-73
2023/07/03 11:34:35;;;;;;;;;;;;;;;;;;5017892;28;92124;-74
2023/07/03 11:37:01;;;;;;;;;;;;;;;;;;5019816;27;92759;-72
2023/07/03 11:39:33;;;;;;;;;;;;;;;;;;5016653;27;92619;-71
2023/07/03 11:42:01;;;;;;;;;;;;;;;;;;5011362;28;94074;-72
2023/07/03 11:44:32;;;;;;;;;;;;;;;;;;5017918;28;93970;-72
2023/07/03 11:47:04;;;;;;;;;;;;;;;;;;5015626;28;92885;-71
2023/07/03 11:49:30;;;;;;;;;;;;;;;;;;5016909;28;95662;-72
2023/07/03 11:51:58;;;;;;;;;;;;;;;;;;5018180;27;93648;-70
2023/07/03 11:54:26;;;;;;;;;;;;;;;;;;5014024;28;92985;-70
2023/07/03 11:56:53;;;;;;;;;;;;;;;;;;5010347;28;95206;-72
2023/07/03 11:59:24;;;;;;;;;;;;;;;;;;5021440;28;92139;-72
2023/07/03 12:01:50;;;;;;;;;;;;;;;;;;5013163;28;92770;-71
2023/07/03 12:04:36;;;;;;;;;;;;;;;;;;5016256;28;94244;-72
2023/07/03 12:07:01;;;;;;;;;;;;;;;;;;5003896;28;95109;-72
2023/07/03 12:09:32;;;;;;;;;;;;;;;;;;5023971;27;96213;-71
2023/07/03 12:12:03;;;;;;;;;;;;;;;;;;5032037;27;95411;-73
2023/07/03 12:14:53;;;;;;;;;;;;;;;;;;5018305;28;93020;-72
2023/07/03 12:17:27;;;;;;;;;;;;;;;;;;5017516;28;94484;-73
2023/07/03 12:19:54;;;;;;;;;;;;;;;;;;5020979;28;92885;-73
2023/07/03 12:22:20;;;;;;;;;;;;;;;;;;5019759;28;92846;-72
2023/07/03 12:24:45;;;;;;;;;;;;;;;;;;5019356;28;92394;-72
2023/07/03 12:27:11;;;;;;;;;;;;;;;;;;5021271;28;92762;-72
2023/07/03 12:29:43;;;;;;;;;;;;;;;;;;5018782;28;94863;-71
2023/07/03 12:32:09;;;;;;;;;;;;;;;;;;5012737;27;96834;-72
2023/07/03 12:34:36;;;;;;;;;;;;;;;;;;5016592;27;92329;-72
2023/07/03 12:37:03;;;;;;;;;;;;;;;;;;5016756;28;93758;-71
2023/07/03 12:39:28;;;;;;;;;;;;;;;;;;5024551;27;95096;-73
2023/07/03 12:42:03;;;;;;;;;;;;;;;;;;5026931;27;92975;-74
2023/07/03 12:44:28;;;;;;;;;;;;;;;;;;5023995;28;93443;-72
2023/07/03 12:46:53;;;;;;;;;;;;;;;;;;5023046;28;92759;-73
2023/07/03 12:49:20;;;;;;;;;;;;;;;;;;5021606;28;92822;-72
2023/07/03 12:51:52;;;;;;;;;;;;;;;;;;5023153;28;92378;-73
2023/07/03 12:54:18;;;;;;;;;;;;;;;;;;5017374;28;93082;-72
2023/07/03 12:56:44;;;;;;;;;;;;;;;;;;5023390;28;94597;-71
2023/07/03 12:59:11;;;;;;;;;;;;;;;;;;5024635;27;93575;-73
2023/07/03 13:01:37;;;;;;;;;;;;;;;;;;5024418;27;94296;-75
2023/07/03 13:04:05;;;;;;;;;;;;;;;;;;5027266;28;92743;-73
2023/07/03 13:06:31;;;;;;;;;;;;;;;;;;5021423;28;92265;-73
2023/07/03 13:08:57;;;;;;;;;;;;;;;;;;5025262;28;94238;-72
2023/07/03 13:11:31;;;;;;;;;;;;;;;;;;5021529;28;93316;-73
2023/07/03 13:14:26;;;;;;;;;;;;;;;;;;5024619;28;92323;-73
2023/07/03 13:16:53;;;;;;;;;;;;;;;;;;5002770;28;92661;-73
2023/07/03 13:19:33;;;;;;;;;;;;;;;;;;5020012;28;93148;-72
2023/07/03 13:21:58;;;;;;;;;;;;;;;;;;5021076;28;93194;-71
2023/07/03 13:24:24;;;;;;;;;;;;;;;;;;5022111;27;94472;-73
2023/07/03 13:26:50;;;;;;;;;;;;;;;;;;5026236;27;92881;-73
2023/07/03 13:29:21;;;;;;;;;;;;;;;;;;5023462;28;92650;-73
2023/07/03 13:31:46;;;;;;;;;;;;;;;;;;5023406;28;94090;-73
2023/07/03 13:34:15;;;;;;;;;;;;;;;;;;5024208;27;92216;-73
2023/07/03 13:36:50;;;;;;;;;;;;;;;;;;5021799;27;92968;-73
2023/07/03 13:39:15;;;;;;;;;;;;;;;;;;5014819;28;92173;-72
2023/07/03 13:41:41;;;;;;;;;;;;;;;;;;5018575;28;92584;-73
2023/07/03 13:44:08;;;;;;;;;;;;;;;;;;5023998;28;93371;-71
2023/07/03 13:46:34;;;;;;;;;;;;;;;;;;5020965;28;93966;-72
2023/07/03 13:49:00;;;;;;;;;;;;;;;;;;5023410;27;92702;-73
2023/07/03 13:51:25;;;;;;;;;;;;;;;;;;5029737;27;94774;-72
2023/07/03 13:53:51;;;;;;;;;;;;;;;;;;5017325;27;92209;-71
2023/07/03 13:56:16;;;;;;;;;;;;;;;;;;5015748;28;93828;-72
2023/07/03 13:58:42;;;;;;;;;;;;;;;;;;5021194;28;92918;-72
2023/07/03 14:01:07;;;;;;;;;;;;;;;;;;5023455;28;92844;-73
2023/07/03 14:03:32;;;;;;;;;;;;;;;;;;5023683;28;93983;-73
2023/07/03 14:05:57;;;;;;;;;;;;;;;;;;5022896;28;92992;-72
2023/07/03 14:08:23;;;;;;;;;;;;;;;;;;5022525;28;92325;-72
2023/07/03 14:10:48;;;;;;;;;;;;;;;;;;5021308;28;93765;-72
2023/07/03 14:13:13;;;;;;;;;;;;;;;;;;5018977;28;93688;-72
2023/07/03 14:15:39;;;;;;;;;;;;;;;;;;5022484;27;94312;-72
2023/07/03 14:18:04;;;;;;;;;;;;;;;;;;5017216;28;92977;-73
2023/07/03 14:20:30;;;;;;;;;;;;;;;;;;5023137;27;95321;-72
2023/07/03 14:22:55;;;;;;;;;;;;;;;;;;5023991;28;92958;-71
2023/07/03 14:25:22;;;;;;;;;;;;;;;;;;5015262;27;92850;-72
2023/07/03 14:27:48;;;;;;;;;;;;;;;;;;5019386;28;93289;-71
2023/07/03 14:30:13;;;;;;;;;;;;;;;;;;5026690;27;95367;-73
2023/07/03 14:32:38;;;;;;;;;;;;;;;;;;5019121;27;93823;-72
2023/07/03 14:35:06;;;;;;;;;;;;;;;;;;5011516;28;93411;-72
2023/07/03 14:37:32;;;;;;;;;;;;;;;;;;5022285;27;92949;-72
2023/07/03 14:39:57;;;;;;;;;;;;;;;;;;5015686;28;92311;-72
2023/07/03 14:42:22;;;;;;;;;;;;;;;;;;5023256;28;92609;-72
2023/07/03 14:44:47;;;;;;;;;;;;;;;;;;5021173;28;93004;-73
2023/07/03 14:47:13;;;;;;;;;;;;;;;;;;5021333;28;92899;-73
2023/07/03 14:49:38;;;;;;;;;;;;;;;;;;5021052;28;92591;-72
2023/07/03 14:52:03;;;;;;;;;;;;;;;;;;5027070;27;94693;-73
2023/07/03 14:54:29;;;;;;;;;;;;;;;;;;5020668;28;92980;-72
2023/07/03 14:56:54;;;;;;;;;;;;;;;;;;5020631;28;93086;-72
2023/07/03 14:59:19;;;;;;;;;;;;;;;;;;5023322;28;93161;-73
2023/07/03 15:01:44;;;;;;;;;;;;;;;;;;5022242;28;93379;-71
2023/07/03 15:04:10;;;;;;;;;;;;;;;;;;5017824;28;92889;-73
2023/07/03 15:06:39;;;;;;;;;;;;;;;;;;5022885;27;92634;-71
2023/07/03 15:09:05;;;;;;;;;;;;;;;;;;5020650;28;95118;-73
2023/07/03 15:11:30;;;;;;;;;;;;;;;;;;5019175;28;94123;-73
2023/07/03 15:13:55;;;;;;;;;;;;;;;;;;5025549;28;92343;-72
2023/07/03 15:16:26;;;;;;;;;;;;;;;;;;5022741;28;92723;-72
2023/07/03 15:18:51;;;;;;;;;;;;;;;;;;5016894;28;95700;-73
2023/07/03 15:21:16;;;;;;;;;;;;;;;;;;5021378;28;93455;-74
2023/07/03 15:23:41;;;;;;;;;;;;;;;;;;5022074;27;94159;-72
2023/07/03 15:26:07;;;;;;;;;;;;;;;;;;5020547;27;92868;-73
2023/07/03 15:28:32;;;;;;;;;;;;;;;;;;5011320;27;92885;-74
2023/07/03 15:30:58;;;;;;;;;;;;;;;;;;5016987;28;92817;-74
2023/07/03 15:33:24;;;;;;;;;;;;;;;;;;5022312;28;92353;-73
2023/07/03 15:35:52;;;;;;;;;;;;;;;;;;5025329;27;92894;-74
2023/07/03 15:38:18;;;;;;;;;;;;;;;;;;5012445;28;92583;-73
2023/07/03 15:40:50;;;;;;;;;;;;;;;;;;5022122;28;92430;-72
2023/07/03 15:43:16;;;;;;;;;;;;;;;;;;5020460;28;94379;-73
2023/07/03 15:45:41;;;;;;;;;;;;;;;;;;5022570;28;92963;-72
2023/07/03 15:48:06;;;;;;;;;;;;;;;;;;5021043;28;94999;-74
2023/07/03 15:50:32;;;;;;;;;;;;;;;;;;5021184;28;94402;-73
2023/07/03 15:52:57;;;;;;;;;;;;;;;;;;5017987;28;92669;-74
2023/07/03 15:55:22;;;;;;;;;;;;;;;;;;5020142;27;94134;-74
2023/07/03 15:57:47;;;;;;;;;;;;;;;;;;5022715;28;93290;-74
2023/07/03 16:00:13;;;;;;;;;;;;;;;;;;5022934;28;92984;-74
2023/07/03 16:02:38;;;;;;;;;;;;;;;;;;5016872;28;92685;-74
2023/07/03 16:05:03;;;;;;;;;;;;;;;;;;5022943;28;91533;-73
2023/07/03 16:07:29;;;;;;;;;;;;;;;;;;5017845;28;93241;-73
2023/07/03 16:09:54;;;;;;;;;;;;;;;;;;5010883;28;93192;-73
2023/07/03 16:12:20;;;;;;;;;;;;;;;;;;5020161;28;93524;-73
2023/07/03 16:14:46;;;;;;;;;;;;;;;;;;5021463;27;93392;-74
2023/07/03 16:17:12;;;;;;;;;;;;;;;;;;5012925;28;96210;-73
2023/07/03 16:19:37;;;;;;;;;;;;;;;;;;5016883;28;92247;-72
2023/07/03 16:22:02;;;;;;;;;;;;;;;;;;5015220;27;93123;-74
2023/07/03 16:24:28;;;;;;;;;;;;;;;;;;5017241;28;93175;-74
2023/07/03 16:26:53;;;;;;;;;;;;;;;;;;5014952;28;94400;-74
2023/07/03 16:29:18;;;;;;;;;;;;;;;;;;5017395;28;92208;-73
2023/07/03 16:31:44;;;;;;;;;;;;;;;;;;5018176;28;92610;-75
2023/07/03 16:34:09;;;;;;;;;;;;;;;;;;5017510;28;93281;-72
2023/07/03 16:36:34;;;;;;;;;;;;;;;;;;5016608;28;94724;-74
2023/07/03 16:39:01;;;;;;;;;;;;;;;;;;5014399;28;92888;-75
2023/07/03 16:41:28;;;;;;;;;;;;;;;;;;5016108;27;93886;-73
2023/07/03 16:43:54;;;;;;;;;;;;;;;;;;5017697;28;93029;-72
2023/07/03 16:46:21;;;;;;;;;;;;;;;;;;5016600;27;94646;-73